createdAt,value
2023-03-15T00:02:32.399Z,96830.50
2023-03-15T00:05:35.519Z,96843.53
2023-03-15T00:08:38.432Z,96843.50
2023-03-15T00:11:40.909Z,96846.88
2023-03-15T00:14:43.432Z,96842.16
2023-03-15T00:17:46.493Z,96839.50
2023-03-15T00:20:49.107Z,96843.38
2023-03-15T00:23:51.804Z,96836.66
2023-03-15T00:26:54.371Z,96842.94
2023-03-15T00:29:56.897Z,96842.53
2023-03-15T00:32:59.688Z,96848.22
2023-03-15T00:36:09.768Z,96842.19
2023-03-15T00:39:12.298Z,96853.22
2023-03-15T00:42:15.868Z,96858.53
2023-03-15T00:45:21.914Z,96856.69
2023-03-15T00:48:24.654Z,96850.38
2023-03-15T00:51:27.458Z,96842.38
2023-03-15T00:54:30.056Z,96843.66
2023-03-15T00:57:35.589Z,96835.41
2023-03-15T01:00:38.433Z,96837.63
2023-03-15T01:03:45.342Z,96854.53
2023-03-15T01:06:47.825Z,96881.56
2023-03-15T01:09:51.334Z,96901.88
2023-03-15T01:12:53.935Z,96917.56
2023-03-15T01:15:56.515Z,96926.50
2023-03-15T01:19:02.617Z,96937.75
2023-03-15T01:22:05.250Z,96941.34
2023-03-15T01:25:09.520Z,96974.19
2023-03-15T01:28:12.113Z,96978.28
2023-03-15T01:31:28.886Z,96975.69
2023-03-15T01:34:31.619Z,96989.78
2023-03-15T01:37:34.820Z,96999.09
2023-03-15T01:40:45.372Z,96999.34
2023-03-15T01:43:49.733Z,96993.63
2023-03-15T01:46:53.293Z,97001.13
2023-03-15T01:50:05.496Z,97031.66
2023-03-15T01:53:10.046Z,97008.00
2023-03-15T01:56:13.933Z,97005.41
2023-03-15T01:59:22.763Z,96996.63
2023-03-15T02:02:27.990Z,97014.94
2023-03-15T02:05:36.372Z,97020.41
2023-03-15T02:08:43.174Z,97011.66
2023-03-15T02:11:45.909Z,97030.38
2023-03-15T02:14:54.722Z,97033.81
2023-03-15T02:18:00.249Z,97059.19
2023-03-15T02:21:20.593Z,97055.06
2023-03-15T02:24:32.223Z,97063.25
2023-03-15T02:27:35.388Z,97075.44
2023-03-15T02:30:38.617Z,97085.38
2023-03-15T02:33:46.848Z,97084.31
2023-03-15T02:36:50.226Z,97071.72
2023-03-15T02:39:52.727Z,97079.75
2023-03-15T02:42:59.484Z,97079.22
2023-03-15T02:46:02.915Z,97071.09
2023-03-15T02:49:08.441Z,97074.38
2023-03-15T02:52:12.375Z,97072.50
2023-03-15T02:55:15.422Z,97074.63
2023-03-15T02:58:18.394Z,97076.28
2023-03-15T03:01:21.362Z,97077.94
2023-03-15T03:04:24.052Z,97072.97
2023-03-15T03:07:26.864Z,97080.19
2023-03-15T03:10:35.510Z,97084.16
2023-03-15T03:13:38.127Z,97089.34
2023-03-15T03:16:43.013Z,97095.50
2023-03-15T03:19:45.600Z,97107.66
2023-03-15T03:22:48.361Z,97111.59
2023-03-15T03:25:57.141Z,97117.38
2023-03-15T03:28:59.801Z,97119.66
2023-03-15T03:32:05.238Z,97120.50
2023-03-15T03:35:09.346Z,97122.38
2023-03-15T03:38:12.186Z,97133.00
2023-03-15T03:41:18.304Z,97134.78
2023-03-15T03:44:20.924Z,97132.13
2023-03-15T03:47:25.526Z,97134.16
2023-03-15T03:50:28.675Z,97134.31
2023-03-15T03:53:31.183Z,97137.31
2023-03-15T03:56:34.177Z,97135.44
2023-03-15T03:59:36.845Z,97147.69
2023-03-15T04:02:44.553Z,97161.63
2023-03-15T04:05:49.849Z,97170.25
2023-03-15T04:08:55.653Z,97160.38
2023-03-15T04:12:06.511Z,97164.94
2023-03-15T04:15:11.920Z,97166.19
2023-03-15T04:18:15.131Z,97165.03
2023-03-15T04:21:23.248Z,97165.75
2023-03-15T04:24:30.226Z,97179.94
2023-03-15T04:27:38.911Z,97178.78
2023-03-15T04:31:10.786Z,97168.31
2023-03-15T04:34:45.560Z,97181.84
2023-03-15T04:37:58.897Z,97182.56
2023-03-15T04:41:30.642Z,97180.34
2023-03-15T04:44:41.131Z,97185.78
2023-03-15T04:48:03.629Z,97187.91
2023-03-15T04:51:28.061Z,97196.53
2023-03-15T04:54:49.605Z,97201.38
2023-03-15T04:58:12.395Z,97209.06
2023-03-15T05:01:14.925Z,97207.91
2023-03-15T05:04:36.525Z,97200.22
2023-03-15T05:07:53.956Z,97212.25
2023-03-15T05:11:07.903Z,97210.59
2023-03-15T05:14:34.137Z,97219.19
2023-03-15T05:17:46.640Z,97208.22
2023-03-15T05:21:15.568Z,97210.81
2023-03-15T05:24:27.939Z,97216.69
2023-03-15T05:27:57.748Z,97219.34
2023-03-15T05:31:16.405Z,97219.59
2023-03-15T05:34:43.440Z,97228.66
2023-03-15T05:38:04.668Z,97231.88
2023-03-15T05:41:46.017Z,97233.25
2023-03-15T05:45:06.935Z,97223.38
2023-03-15T05:48:32.945Z,97241.53
2023-03-15T05:52:04.716Z,97234.66
2023-03-15T05:55:15.331Z,97244.78
2023-03-15T05:58:41.402Z,97241.41
2023-03-15T06:02:16.651Z,97256.84
2023-03-15T06:05:41.363Z,97263.44
2023-03-15T06:08:50.903Z,97266.00
2023-03-15T06:11:54.277Z,97263.41
2023-03-15T06:14:57.911Z,97274.97
2023-03-15T06:18:01.227Z,97276.72
2023-03-15T06:21:04.900Z,97290.16
2023-03-15T06:24:08.530Z,97300.66
2023-03-15T06:27:11.552Z,97302.31
2023-03-15T06:30:16.954Z,97302.75
2023-03-15T06:33:21.851Z,97309.94
2023-03-15T06:36:25.550Z,97311.84
2023-03-15T06:39:28.667Z,97324.91
2023-03-15T06:42:31.589Z,97324.56
2023-03-15T06:45:34.575Z,97334.13
2023-03-15T06:48:39.656Z,97346.84
2023-03-15T06:51:45.678Z,97352.28
2023-03-15T06:54:48.537Z,97361.94
2023-03-15T06:57:51.266Z,97371.13
2023-03-15T07:00:54.151Z,97383.63
2023-03-15T07:03:56.866Z,97380.56
2023-03-15T07:06:59.481Z,97381.28
2023-03-15T07:10:04.826Z,97400.84
2023-03-15T07:13:07.623Z,97397.19
2023-03-15T07:16:10.422Z,97402.75
2023-03-15T07:19:13.064Z,97400.38
2023-03-15T07:22:15.691Z,97410.50
2023-03-15T07:25:24.232Z,97406.25
2023-03-15T07:28:27.771Z,97398.94
2023-03-15T07:31:30.836Z,97410.16
2023-03-15T07:34:33.643Z,97392.84
2023-03-15T07:37:36.290Z,97391.63
2023-03-15T07:40:39.131Z,97396.81
2023-03-15T07:43:42.142Z,97407.44
2023-03-15T07:46:51.273Z,97409.78
2023-03-15T07:49:54.216Z,97409.56
2023-03-15T07:52:56.985Z,97408.03
2023-03-15T07:56:01.094Z,97413.31
2023-03-15T07:59:04.102Z,97407.34
2023-03-15T08:02:07.197Z,97413.00
2023-03-15T08:05:10.589Z,97413.31
2023-03-15T08:08:13.620Z,97415.09
2023-03-15T08:11:16.255Z,97417.19
2023-03-15T08:14:22.103Z,97422.75
2023-03-15T08:17:24.890Z,97425.81
2023-03-15T08:20:29.736Z,97436.06
2023-03-15T08:23:32.959Z,97439.75
2023-03-15T08:26:35.881Z,97444.94
2023-03-15T08:29:38.739Z,97451.88
2023-03-15T08:32:43.058Z,97441.72
2023-03-15T08:35:46.254Z,97448.56
2023-03-15T08:38:48.804Z,97441.34
2023-03-15T08:41:52.465Z,97455.75
2023-03-15T08:44:59.662Z,97456.44
2023-03-15T08:48:02.284Z,97458.47
2023-03-15T08:51:06.911Z,97455.53
2023-03-15T08:54:09.847Z,97464.72
2023-03-15T08:57:13.021Z,97474.13
2023-03-15T09:00:23.454Z,97465.34
2023-03-15T09:03:26.205Z,97476.22
2023-03-15T09:06:29.307Z,97491.66
2023-03-15T09:09:32.004Z,97471.59
2023-03-15T09:12:34.758Z,97494.81
2023-03-15T09:15:37.489Z,97491.78
2023-03-15T09:18:41.719Z,97502.78
2023-03-15T09:21:45.525Z,97515.38
2023-03-15T09:24:50.329Z,97507.84
2023-03-15T09:27:53.945Z,97513.53
2023-03-15T09:30:58.808Z,97536.81
2023-03-15T09:34:02.128Z,97524.44
2023-03-15T09:37:05.729Z,97530.50
2023-03-15T09:40:21.587Z,97528.94
2023-03-15T09:43:50.627Z,97538.28
2023-03-15T09:47:16.977Z,97530.81
2023-03-15T09:50:23.690Z,97537.69
2023-03-15T09:54:21.458Z,97523.34
2023-03-15T09:57:30.547Z,97543.63
2023-03-15T10:00:41.020Z,97535.63
2023-03-15T10:03:53.828Z,97537.66
2023-03-15T10:06:58.841Z,97534.66
2023-03-15T10:10:01.811Z,97545.91
2023-03-15T10:13:23.226Z,97559.16
2023-03-15T10:16:47.237Z,97539.94
2023-03-15T10:19:52.178Z,97553.81
2023-03-15T10:23:07.148Z,97561.31
2023-03-15T10:26:14.137Z,97548.75
2023-03-15T10:29:18.337Z,97558.34
2023-03-15T10:32:25.750Z,97553.84
2023-03-15T10:35:28.549Z,97553.13
2023-03-15T10:38:31.471Z,97539.19
2023-03-15T10:41:42.267Z,97540.88
2023-03-15T10:44:44.883Z,97564.69
2023-03-15T10:47:57.672Z,97569.31
2023-03-15T10:51:39.871Z,97570.78
2023-03-15T10:54:43.043Z,97562.91
2023-03-15T10:57:57.759Z,97567.22
2023-03-15T11:01:07.763Z,97561.16
2023-03-15T11:04:14.338Z,97572.75
2023-03-15T11:07:16.997Z,97555.69
2023-03-15T11:10:25.867Z,97555.78
2023-03-15T11:13:30.443Z,97558.66
2023-03-15T11:16:38.145Z,97562.75
2023-03-15T11:19:43.263Z,97569.72
2023-03-15T11:22:45.826Z,97578.53
2023-03-15T11:25:48.642Z,97568.00
2023-03-15T11:28:59.325Z,97558.56
2023-03-15T11:32:11.359Z,97575.25
2023-03-15T11:35:18.621Z,97572.63
2023-03-15T11:38:28.408Z,97571.84
2023-03-15T11:41:44.353Z,97595.03
2023-03-15T11:44:49.748Z,97592.94
2023-03-15T11:48:05.072Z,97580.09
2023-03-15T11:51:08.356Z,97592.50
2023-03-15T11:54:16.066Z,97577.31
2023-03-15T11:57:40.959Z,97572.19
2023-03-15T12:00:47.210Z,97570.50
2023-03-15T12:03:50.159Z,97580.97
2023-03-15T12:06:56.997Z,97584.28
2023-03-15T12:10:06.063Z,97593.97
2023-03-15T12:13:28.985Z,97589.31
2023-03-15T12:16:39.665Z,97595.63
2023-03-15T12:19:42.705Z,97589.06
2023-03-15T12:22:53.320Z,97591.25
2023-03-15T12:26:02.637Z,97574.72
2023-03-15T12:29:26.803Z,97575.28
2023-03-15T12:32:30.755Z,97596.53
2023-03-15T12:35:40.241Z,97592.94
2023-03-15T12:38:55.640Z,97604.25
2023-03-15T12:41:59.014Z,97603.47
2023-03-15T12:45:19.470Z,97606.78
2023-03-15T12:48:23.088Z,97600.28
2023-03-15T12:51:46.067Z,97605.69
2023-03-15T12:55:04.362Z,97622.03
2023-03-15T12:58:12.490Z,97613.50
2023-03-15T13:01:16.722Z,97605.53
2023-03-15T13:04:19.539Z,97600.44
2023-03-15T13:07:42.631Z,97638.69
2023-03-15T13:11:20.310Z,97622.22
2023-03-15T13:14:41.980Z,97631.75
2023-03-15T13:17:54.332Z,97611.69
2023-03-15T13:21:16.702Z,97608.75
2023-03-15T13:24:25.393Z,97612.03
2023-03-15T13:28:13.130Z,97605.94
2023-03-15T13:31:24.892Z,97623.34
2023-03-15T13:34:31.172Z,97623.88
2023-03-15T13:37:34.110Z,97628.03
2023-03-15T13:40:46.363Z,97629.28
2023-03-15T13:43:51.569Z,97632.25
2023-03-15T13:46:54.970Z,97633.09
2023-03-15T13:49:57.752Z,97645.31
2023-03-15T13:53:00.477Z,97644.56
2023-03-15T13:56:08.016Z,97657.50
2023-03-15T13:59:12.512Z,97650.97
2023-03-15T14:02:18.855Z,97642.97
2023-03-15T14:05:27.784Z,97650.78
2023-03-15T14:08:30.772Z,97663.28
2023-03-15T14:11:40.925Z,97662.97
2023-03-15T14:14:51.035Z,97679.25
2023-03-15T14:18:07.454Z,97673.78
2023-03-15T14:21:19.041Z,97676.28
2023-03-15T14:24:39.356Z,97687.59
2023-03-15T14:27:42.376Z,97670.75
2023-03-15T14:30:53.114Z,97677.09
2023-03-15T14:34:01.195Z,97683.66
2023-03-15T14:37:10.523Z,97672.34
2023-03-15T14:40:21.454Z,97689.88
2023-03-15T14:43:24.037Z,97681.28
2023-03-15T14:46:27.087Z,97694.56
2023-03-15T14:49:30.019Z,97693.28
2023-03-15T14:52:33.357Z,97683.13
2023-03-15T14:55:37.536Z,97682.78
2023-03-15T14:58:41.588Z,97686.31
2023-03-15T15:01:52.204Z,97694.13
2023-03-15T15:04:55.069Z,97685.84
2023-03-15T15:08:15.336Z,97695.50
2023-03-15T15:11:18.046Z,97697.00
2023-03-15T15:14:22.377Z,97690.09
2023-03-15T15:17:25.166Z,97701.66
2023-03-15T15:20:27.817Z,97712.59
2023-03-15T15:23:32.811Z,97714.81
2023-03-15T15:26:36.558Z,97719.88
2023-03-15T15:29:39.226Z,97724.41
2023-03-15T15:32:44.936Z,97720.28
2023-03-15T15:35:47.692Z,97722.19
2023-03-15T15:38:50.850Z,97721.72
2023-03-15T15:41:54.126Z,97727.91
2023-03-15T15:44:56.927Z,97738.63
2023-03-15T15:48:06.041Z,97731.31
2023-03-15T15:51:35.859Z,97743.16
2023-03-15T15:54:38.878Z,97736.19
2023-03-15T15:57:42.023Z,97749.59
2023-03-15T16:00:44.757Z,97761.59
2023-03-15T16:03:47.761Z,97753.88
2023-03-15T16:06:59.279Z,97753.44
2023-03-15T16:10:02.313Z,97758.75
2023-03-15T16:13:05.461Z,97757.53
2023-03-15T16:16:13.548Z,97754.13
2023-03-15T16:19:16.352Z,97761.25
2023-03-15T16:22:21.692Z,97770.94
2023-03-15T16:25:28.853Z,97777.56
2023-03-15T16:28:31.416Z,97783.22
2023-03-15T16:31:35.015Z,97793.88
2023-03-15T16:34:38.037Z,97789.13
2023-03-15T16:37:41.899Z,97810.53
2023-03-15T16:40:46.082Z,97792.19
2023-03-15T16:43:49.559Z,97804.28
2023-03-15T16:46:52.843Z,97803.56
2023-03-15T16:49:55.638Z,97804.25
2023-03-15T16:53:00.324Z,97815.38
2023-03-15T16:56:05.272Z,97809.47
2023-03-15T16:59:12.732Z,97817.97
2023-03-15T17:02:24.327Z,97826.59
2023-03-15T17:05:27.169Z,97827.31
2023-03-15T17:08:30.306Z,97830.94
2023-03-15T17:11:33.146Z,97835.22
2023-03-15T17:14:35.982Z,97844.41
2023-03-15T17:17:38.920Z,97849.84
2023-03-15T17:20:41.765Z,97855.81
2023-03-15T17:23:46.467Z,97856.91
2023-03-15T17:26:49.190Z,97854.41
2023-03-15T17:29:52.381Z,97862.31
2023-03-15T17:32:55.522Z,97870.06
2023-03-15T17:35:59.109Z,97868.63
2023-03-15T17:39:03.329Z,97878.50
2023-03-15T17:42:06.416Z,97877.81
2023-03-15T17:45:21.331Z,97886.75
2023-03-15T17:48:24.292Z,97881.84
2023-03-15T17:51:36.979Z,97889.75
2023-03-15T17:54:39.940Z,97896.81
2023-03-15T17:57:45.854Z,97897.69
2023-03-15T18:00:55.481Z,97895.78
2023-03-15T18:03:58.657Z,97909.84
2023-03-15T18:07:01.771Z,97905.19
2023-03-15T18:10:07.223Z,97903.22
2023-03-15T18:13:15.142Z,97894.00
2023-03-15T18:16:19.225Z,97895.97
2023-03-15T18:19:22.075Z,97892.16
2023-03-15T18:22:24.891Z,97908.97
2023-03-15T18:25:30.195Z,97903.28
2023-03-15T18:28:33.252Z,97904.63
2023-03-15T18:31:36.819Z,97910.88
2023-03-15T18:34:39.768Z,97912.84
2023-03-15T18:37:42.508Z,97913.34
2023-03-15T18:40:45.592Z,97920.72
2023-03-15T18:43:52.336Z,97912.75
2023-03-15T18:46:55.441Z,97921.53
2023-03-15T18:50:09.704Z,97921.66
2023-03-15T18:53:13.241Z,97922.78
2023-03-15T18:56:20.537Z,97922.59
2023-03-15T18:59:25.749Z,97933.34
2023-03-15T19:02:28.959Z,97941.63
2023-03-15T19:05:34.727Z,97950.22
2023-03-15T19:08:38.404Z,97944.81
2023-03-15T19:11:44.018Z,97943.88
2023-03-15T19:14:47.049Z,97953.91
2023-03-15T19:17:52.423Z,97960.72
2023-03-15T19:20:55.670Z,97960.63
2023-03-15T19:23:59.176Z,97967.16
2023-03-15T19:27:03.409Z,97979.00
2023-03-15T19:30:09.014Z,97976.56
2023-03-15T19:33:12.133Z,97988.97
2023-03-15T19:36:15.464Z,97988.25
2023-03-15T19:39:20.218Z,97991.28
2023-03-15T19:42:23.983Z,97996.44
2023-03-15T19:45:27.086Z,97997.66
2023-03-15T19:48:30.326Z,97998.84
2023-03-15T19:51:33.281Z,97999.13
2023-03-15T19:54:36.282Z,98002.03
2023-03-15T19:57:39.179Z,98006.66
2023-03-15T20:00:42.418Z,98008.09
2023-03-15T20:03:45.771Z,97999.03
2023-03-15T20:06:49.380Z,98004.22
2023-03-15T20:09:54.241Z,98010.91
2023-03-15T20:13:17.148Z,97998.25
2023-03-15T20:16:21.558Z,98001.22
2023-03-15T20:19:26.391Z,98004.13
2023-03-15T20:22:29.518Z,98010.50
2023-03-15T20:25:32.804Z,98004.78
2023-03-15T20:28:36.541Z,98007.84
2023-03-15T20:31:40.378Z,98019.75
2023-03-15T20:34:44.740Z,98014.84
2023-03-15T20:37:48.530Z,98022.16
2023-03-15T20:40:55.831Z,98024.31
2023-03-15T20:43:59.298Z,98022.78
2023-03-15T20:47:02.209Z,98029.19
2023-03-15T20:50:07.554Z,98031.41
2023-03-15T20:53:10.771Z,98031.59
2023-03-15T20:56:14.015Z,98032.09
2023-03-15T20:59:16.872Z,98032.75
2023-03-15T21:02:20.170Z,98035.66
2023-03-15T21:05:24.674Z,98038.00
2023-03-15T21:08:27.975Z,98039.06
2023-03-15T21:11:30.990Z,98045.50
2023-03-15T21:14:34.352Z,98039.88
2023-03-15T21:17:37.271Z,98053.09
2023-03-15T21:20:40.610Z,98054.69
2023-03-15T21:23:43.616Z,98066.91
2023-03-15T21:26:48.821Z,98068.28
2023-03-15T21:29:51.531Z,98060.09
2023-03-15T21:32:54.433Z,98060.63
2023-03-15T21:35:59.297Z,98055.88
2023-03-15T21:39:02.089Z,98059.75
2023-03-15T21:42:05.417Z,98056.59
2023-03-15T21:45:09.292Z,98057.25
2023-03-15T21:48:12.055Z,98056.22
2023-03-15T21:51:15.081Z,98064.16
2023-03-15T21:54:18.264Z,98059.94
2023-03-15T21:57:25.074Z,98068.50
2023-03-15T22:00:29.094Z,98061.22
2023-03-15T22:03:32.541Z,98054.47
2023-03-15T22:06:35.458Z,98059.16
2023-03-15T22:09:38.475Z,98064.31
2023-03-15T22:12:42.653Z,98073.88
2023-03-15T22:15:45.400Z,98067.06
2023-03-15T22:18:48.277Z,98065.56
2023-03-15T22:21:51.378Z,98065.84
2023-03-15T22:24:54.154Z,98074.34
2023-03-15T22:27:56.999Z,98075.09
2023-03-15T22:30:59.824Z,98075.81
2023-03-15T22:34:04.758Z,98084.44
2023-03-15T22:37:07.620Z,98079.47
2023-03-15T22:40:14.450Z,98083.22
2023-03-15T22:43:17.445Z,98089.78
2023-03-15T22:46:20.208Z,98084.28
2023-03-15T22:49:24.054Z,98092.78
2023-03-15T22:52:30.028Z,98087.78
2023-03-15T22:55:32.817Z,98103.28
2023-03-15T22:58:35.535Z,98095.53
2023-03-15T23:01:38.255Z,98095.63
2023-03-15T23:04:41.382Z,98107.53
2023-03-15T23:07:44.152Z,98110.13
2023-03-15T23:10:46.799Z,98104.78
2023-03-15T23:13:49.450Z,98111.44
2023-03-15T23:16:52.526Z,98112.47
2023-03-15T23:19:55.267Z,98115.38
2023-03-15T23:22:58.297Z,98108.09
2023-03-15T23:26:02.418Z,98113.94
2023-03-15T23:29:10.887Z,98119.09
2023-03-15T23:32:13.569Z,98113.50
2023-03-15T23:35:16.408Z,98112.84
2023-03-15T23:38:19.318Z,98113.13
2023-03-15T23:41:21.960Z,98115.13
2023-03-15T23:44:24.460Z,98122.47
2023-03-15T23:47:27.119Z,98124.47
2023-03-15T23:50:29.960Z,98125.63
2023-03-15T23:53:32.776Z,98124.06
2023-03-15T23:56:35.356Z,98125.13
2023-03-15T23:59:38.217Z,98128.28
